sensor_id;sensor_type;location;lat;lon;timestamp;P1;durP1;ratioP1;P2;durP2;ratioP2
4642;SDS011;2334;48.710;9.622;2022-08-01T00:00:49;4.40;;;2.90;;
4642;SDS011;2334;48.710;9.622;2022-08-01T00:03:16;2.87;;;2.67;;
4642;SDS011;2334;48.710;9.622;2022-08-01T00:05:43;3.80;;;2.53;;
4642;SDS011;2334;48.710;9.622;2022-08-01T00:08:10;5.97;;;3.00;;
4642;SDS011;2334;48.710;9.622;2022-08-01T00:10:37;2.97;;;2.57;;
4642;SDS011;2334;48.710;9.622;2022-08-01T00:13:04;2.73;;;2.53;;
4642;SDS011;2334;48.710;9.622;2022-08-01T00:15:32;3.30;;;2.40;;
4642;SDS011;2334;48.710;9.622;2022-08-01T00:17:59;3.13;;;2.80;;
4642;SDS011;2334;48.710;9.622;2022-08-01T00:20:26;4.67;;;2.90;;
4642;SDS011;2334;48.710;9.622;2022-08-01T00:22:54;5.80;;;2.83;;
4642;SDS011;2334;48.710;9.622;2022-08-01T00:25:20;2.83;;;2.63;;
4642;SDS011;2334;48.710;9.622;2022-08-01T00:27:47;3.10;;;2.90;;
4642;SDS011;2334;48.710;9.622;2022-08-01T00:30:14;2.83;;;2.63;;
4642;SDS011;2334;48.710;9.622;2022-08-01T00:32:43;3.97;;;2.63;;
4642;SDS011;2334;48.710;9.622;2022-08-01T00:35:10;4.30;;;3.10;;
4642;SDS011;2334;48.710;9.622;2022-08-01T00:37:38;2.87;;;2.67;;
4642;SDS011;2334;48.710;9.622;2022-08-01T00:40:05;4.73;;;2.77;;
4642;SDS011;2334;48.710;9.622;2022-08-01T00:42:33;4.23;;;2.70;;
4642;SDS011;2334;48.710;9.622;2022-08-01T00:45:00;8.83;;;3.03;;
4642;SDS011;2334;48.710;9.622;2022-08-01T00:47:27;2.70;;;2.50;;
4642;SDS011;2334;48.710;9.622;2022-08-01T00:49:55;3.00;;;2.80;;
4642;SDS011;2334;48.710;9.622;2022-08-01T00:52:22;2.60;;;2.30;;
4642;SDS011;2334;48.710;9.622;2022-08-01T00:54:49;3.10;;;2.73;;
4642;SDS011;2334;48.710;9.622;2022-08-01T00:57:17;2.50;;;2.30;;
4642;SDS011;2334;48.710;9.622;2022-08-01T00:59:44;8.00;;;3.10;;
4642;SDS011;2334;48.710;9.622;2022-08-01T01:02:11;5.70;;;3.27;;
4642;SDS011;2334;48.710;9.622;2022-08-01T01:04:38;3.50;;;2.33;;
4642;SDS011;2334;48.710;9.622;2022-08-01T01:07:08;3.40;;;3.10;;
4642;SDS011;2334;48.710;9.622;2022-08-01T01:09:42;2.87;;;2.63;;
4642;SDS011;2334;48.710;9.622;2022-08-01T01:12:19;3.67;;;2.90;;
4642;SDS011;2334;48.710;9.622;2022-08-01T01:14:53;4.03;;;2.30;;
4642;SDS011;2334;48.710;9.622;2022-08-01T01:17:27;3.83;;;3.53;;
4642;SDS011;2334;48.710;9.622;2022-08-01T01:19:59;2.60;;;2.40;;
4642;SDS011;2334;48.710;9.622;2022-08-01T01:22:45;4.57;;;3.10;;
4642;SDS011;2334;48.710;9.622;2022-08-01T01:25:19;4.03;;;2.40;;
4642;SDS011;2334;48.710;9.622;2022-08-01T01:27:57;7.57;;;2.77;;
4642;SDS011;2334;48.710;9.622;2022-08-01T01:30:34;3.17;;;2.97;;
4642;SDS011;2334;48.710;9.622;2022-08-01T01:33:03;3.30;;;3.10;;
4642;SDS011;2334;48.710;9.622;2022-08-01T01:35:34;3.73;;;2.93;;
4642;SDS011;2334;48.710;9.622;2022-08-01T01:38:05;2.87;;;2.67;;
4642;SDS011;2334;48.710;9.622;2022-08-01T01:40:35;2.73;;;2.50;;
4642;SDS011;2334;48.710;9.622;2022-08-01T01:43:03;2.93;;;2.60;;
4642;SDS011;2334;48.710;9.622;2022-08-01T01:45:31;3.97;;;2.97;;
4642;SDS011;2334;48.710;9.622;2022-08-01T01:48:00;3.90;;;2.80;;
4642;SDS011;2334;48.710;9.622;2022-08-01T01:50:28;4.40;;;2.90;;
4642;SDS011;2334;48.710;9.622;2022-08-01T01:52:55;2.97;;;2.50;;
4642;SDS011;2334;48.710;9.622;2022-08-01T01:55:24;3.17;;;2.87;;
4642;SDS011;2334;48.710;9.622;2022-08-01T01:57:52;3.57;;;2.60;;
4642;SDS011;2334;48.710;9.622;2022-08-01T02:00:21;3.07;;;2.73;;
4642;SDS011;2334;48.710;9.622;2022-08-01T02:02:50;2.90;;;2.70;;
4642;SDS011;2334;48.710;9.622;2022-08-01T02:05:20;3.33;;;3.07;;
4642;SDS011;2334;48.710;9.622;2022-08-01T02:07:47;2.80;;;2.60;;
4642;SDS011;2334;48.710;9.622;2022-08-01T02:10:15;3.40;;;3.00;;
4642;SDS011;2334;48.710;9.622;2022-08-01T02:12:44;3.20;;;2.93;;
4642;SDS011;2334;48.710;9.622;2022-08-01T02:15:15;2.93;;;2.73;;
4642;SDS011;2334;48.710;9.622;2022-08-01T02:17:44;2.80;;;2.60;;
4642;SDS011;2334;48.710;9.622;2022-08-01T02:20:13;3.07;;;2.57;;
4642;SDS011;2334;48.710;9.622;2022-08-01T02:22:44;3.00;;;2.70;;
4642;SDS011;2334;48.710;9.622;2022-08-01T02:25:15;3.57;;;2.77;;
4642;SDS011;2334;48.710;9.622;2022-08-01T02:27:50;5.60;;;3.97;;
4642;SDS011;2334;48.710;9.622;2022-08-01T02:30:22;3.83;;;2.70;;
4642;SDS011;2334;48.710;9.622;2022-08-01T02:32:53;2.70;;;2.53;;
4642;SDS011;2334;48.710;9.622;2022-08-01T02:35:26;2.97;;;2.70;;
4642;SDS011;2334;48.710;9.622;2022-08-01T02:37:56;4.93;;;2.57;;
4642;SDS011;2334;48.710;9.622;2022-08-01T02:40:25;3.20;;;2.97;;
4642;SDS011;2334;48.710;9.622;2022-08-01T02:42:54;6.37;;;3.07;;
4642;SDS011;2334;48.710;9.622;2022-08-01T02:45:24;2.80;;;2.23;;
4642;SDS011;2334;48.710;9.622;2022-08-01T02:47:53;3.07;;;2.70;;
4642;SDS011;2334;48.710;9.622;2022-08-01T02:50:25;3.07;;;2.87;;
4642;SDS011;2334;48.710;9.622;2022-08-01T02:52:55;5.83;;;2.70;;
4642;SDS011;2334;48.710;9.622;2022-08-01T02:55:24;3.97;;;3.20;;
4642;SDS011;2334;48.710;9.622;2022-08-01T02:57:52;6.03;;;3.27;;
4642;SDS011;2334;48.710;9.622;2022-08-01T03:00:20;2.40;;;2.30;;
4642;SDS011;2334;48.710;9.622;2022-08-01T03:02:49;2.97;;;2.70;;
4642;SDS011;2334;48.710;9.622;2022-08-01T03:05:19;7.73;;;3.70;;
4642;SDS011;2334;48.710;9.622;2022-08-01T03:07:47;3.10;;;2.90;;
4642;SDS011;2334;48.710;9.622;2022-08-01T03:10:16;2.57;;;2.37;;
4642;SDS011;2334;48.710;9.622;2022-08-01T03:12:44;2.70;;;2.50;;
4642;SDS011;2334;48.710;9.622;2022-08-01T03:15:12;3.30;;;3.00;;
4642;SDS011;2334;48.710;9.622;2022-08-01T03:17:41;3.27;;;2.40;;
4642;SDS011;2334;48.710;9.622;2022-08-01T03:20:11;3.43;;;2.93;;
4642;SDS011;2334;48.710;9.622;2022-08-01T03:22:40;3.70;;;3.13;;
4642;SDS011;2334;48.710;9.622;2022-08-01T03:25:09;2.70;;;2.40;;
4642;SDS011;2334;48.710;9.622;2022-08-01T03:27:40;8.33;;;3.10;;
4642;SDS011;2334;48.710;9.622;2022-08-01T03:30:09;4.90;;;2.40;;
4642;SDS011;2334;48.710;9.622;2022-08-01T03:32:37;2.67;;;2.47;;
4642;SDS011;2334;48.710;9.622;2022-08-01T03:35:05;2.80;;;2.60;;
4642;SDS011;2334;48.710;9.622;2022-08-01T03:37:34;3.47;;;3.17;;
4642;SDS011;2334;48.710;9.622;2022-08-01T03:40:06;3.07;;;2.77;;
4642;SDS011;2334;48.710;9.622;2022-08-01T03:42:35;3.60;;;2.57;;
4642;SDS011;2334;48.710;9.622;2022-08-01T03:45:10;6.50;;;3.53;;
4642;SDS011;2334;48.710;9.622;2022-08-01T03:47:42;4.57;;;2.70;;
4642;SDS011;2334;48.710;9.622;2022-08-01T03:50:12;5.73;;;2.47;;
4642;SDS011;2334;48.710;9.622;2022-08-01T03:52:41;3.50;;;2.70;;
4642;SDS011;2334;48.710;9.622;2022-08-01T03:55:12;3.73;;;3.00;;
4642;SDS011;2334;48.710;9.622;2022-08-01T03:57:41;3.23;;;3.03;;
4642;SDS011;2334;48.710;9.622;2022-08-01T04:00:12;6.20;;;2.70;;
4642;SDS011;2334;48.710;9.622;2022-08-01T04:02:43;5.43;;;3.30;;
4642;SDS011;2334;48.710;9.622;2022-08-01T04:05:11;3.83;;;3.00;;
4642;SDS011;2334;48.710;9.622;2022-08-01T04:07:38;5.13;;;2.50;;
4642;SDS011;2334;48.710;9.622;2022-08-01T04:10:08;2.70;;;2.50;;
4642;SDS011;2334;48.710;9.622;2022-08-01T04:12:35;2.97;;;2.77;;
4642;SDS011;2334;48.710;9.622;2022-08-01T04:15:02;5.03;;;3.03;;
4642;SDS011;2334;48.710;9.622;2022-08-01T04:17:31;3.87;;;2.57;;
4642;SDS011;2334;48.710;9.622;2022-08-01T04:19:58;2.90;;;2.60;;
4642;SDS011;2334;48.710;9.622;2022-08-01T04:22:24;2.77;;;2.50;;
4642;SDS011;2334;48.710;9.622;2022-08-01T04:24:53;4.77;;;2.30;;
4642;SDS011;2334;48.710;9.622;2022-08-01T04:27:24;2.70;;;2.50;;
4642;SDS011;2334;48.710;9.622;2022-08-01T04:29:55;2.47;;;2.27;;
4642;SDS011;2334;48.710;9.622;2022-08-01T04:32:24;2.60;;;2.40;;
4642;SDS011;2334;48.710;9.622;2022-08-01T04:34:55;2.37;;;2.20;;
4642;SDS011;2334;48.710;9.622;2022-08-01T04:37:25;4.73;;;3.57;;
4642;SDS011;2334;48.710;9.622;2022-08-01T04:39:55;3.50;;;2.30;;
4642;SDS011;2334;48.710;9.622;2022-08-01T04:42:23;2.90;;;2.70;;
4642;SDS011;2334;48.710;9.622;2022-08-01T04:44:50;8.00;;;3.20;;
4642;SDS011;2334;48.710;9.622;2022-08-01T04:47:18;3.83;;;2.90;;
4642;SDS011;2334;48.710;9.622;2022-08-01T04:49:46;3.93;;;2.37;;
4642;SDS011;2334;48.710;9.622;2022-08-01T04:52:14;4.30;;;2.07;;
4642;SDS011;2334;48.710;9.622;2022-08-01T04:54:43;3.13;;;2.83;;
4642;SDS011;2334;48.710;9.622;2022-08-01T04:57:11;3.33;;;2.60;;
4642;SDS011;2334;48.710;9.622;2022-08-01T04:59:41;3.87;;;3.23;;
4642;SDS011;2334;48.710;9.622;2022-08-01T05:02:10;3.40;;;2.40;;
4642;SDS011;2334;48.710;9.622;2022-08-01T05:04:38;6.43;;;3.10;;
4642;SDS011;2334;48.710;9.622;2022-08-01T05:07:07;5.60;;;2.77;;
4642;SDS011;2334;48.710;9.622;2022-08-01T05:09:36;2.50;;;2.20;;
4642;SDS011;2334;48.710;9.622;2022-08-01T05:12:04;2.30;;;2.17;;
4642;SDS011;2334;48.710;9.622;2022-08-01T05:14:32;4.70;;;3.23;;
4642;SDS011;2334;48.710;9.622;2022-08-01T05:17:00;3.60;;;3.10;;
4642;SDS011;2334;48.710;9.622;2022-08-01T05:19:28;2.93;;;2.73;;
4642;SDS011;2334;48.710;9.622;2022-08-01T05:21:56;4.47;;;2.90;;
4642;SDS011;2334;48.710;9.622;2022-08-01T05:24:25;3.43;;;3.13;;
4642;SDS011;2334;48.710;9.622;2022-08-01T05:26:55;2.80;;;2.60;;
4642;SDS011;2334;48.710;9.622;2022-08-01T05:29:22;3.47;;;2.60;;
4642;SDS011;2334;48.710;9.622;2022-08-01T05:31:50;3.13;;;2.93;;
4642;SDS011;2334;48.710;9.622;2022-08-01T05:34:18;3.27;;;2.40;;
4642;SDS011;2334;48.710;9.622;2022-08-01T05:36:45;3.20;;;2.67;;
4642;SDS011;2334;48.710;9.622;2022-08-01T05:39:13;4.27;;;2.70;;
4642;SDS011;2334;48.710;9.622;2022-08-01T05:41:40;6.50;;;2.83;;
4642;SDS011;2334;48.710;9.622;2022-08-01T05:44:09;3.33;;;2.80;;
4642;SDS011;2334;48.710;9.622;2022-08-01T05:46:36;5.73;;;2.47;;
4642;SDS011;2334;48.710;9.622;2022-08-01T05:49:04;2.87;;;2.60;;
4642;SDS011;2334;48.710;9.622;2022-08-01T05:51:31;3.50;;;3.20;;
4642;SDS011;2334;48.710;9.622;2022-08-01T05:53:58;7.47;;;2.93;;
4642;SDS011;2334;48.710;9.622;2022-08-01T05:56:25;3.37;;;2.60;;
4642;SDS011;2334;48.710;9.622;2022-08-01T05:58:52;7.33;;;2.40;;
4642;SDS011;2334;48.710;9.622;2022-08-01T06:01:21;6.23;;;2.43;;
4642;SDS011;2334;48.710;9.622;2022-08-01T06:03:48;2.73;;;2.53;;
4642;SDS011;2334;48.710;9.622;2022-08-01T06:06:15;3.20;;;2.80;;
4642;SDS011;2334;48.710;9.622;2022-08-01T06:08:42;7.00;;;2.90;;
4642;SDS011;2334;48.710;9.622;2022-08-01T06:11:08;2.97;;;2.77;;
4642;SDS011;2334;48.710;9.622;2022-08-01T06:13:35;4.30;;;2.77;;
4642;SDS011;2334;48.710;9.622;2022-08-01T06:16:02;2.77;;;2.57;;
4642;SDS011;2334;48.710;9.622;2022-08-01T06:18:31;1.83;;;1.73;;
4642;SDS011;2334;48.710;9.622;2022-08-01T06:20:58;3.17;;;2.97;;
4642;SDS011;2334;48.710;9.622;2022-08-01T06:23:25;3.03;;;2.27;;
4642;SDS011;2334;48.710;9.622;2022-08-01T06:25:52;3.10;;;2.80;;
4642;SDS011;2334;48.710;9.622;2022-08-01T06:28:19;4.23;;;2.63;;
4642;SDS011;2334;48.710;9.622;2022-08-01T06:30:46;4.23;;;2.17;;
4642;SDS011;2334;48.710;9.622;2022-08-01T06:33:13;5.53;;;2.80;;
4642;SDS011;2334;48.710;9.622;2022-08-01T06:35:42;4.27;;;2.50;;
4642;SDS011;2334;48.710;9.622;2022-08-01T06:38:09;2.70;;;2.50;;
4642;SDS011;2334;48.710;9.622;2022-08-01T06:40:36;3.00;;;2.80;;
4642;SDS011;2334;48.710;9.622;2022-08-01T06:43:03;4.20;;;2.23;;
4642;SDS011;2334;48.710;9.622;2022-08-01T06:45:30;5.60;;;3.20;;
4642;SDS011;2334;48.710;9.622;2022-08-01T06:47:57;2.60;;;2.00;;
4642;SDS011;2334;48.710;9.622;2022-08-01T06:50:24;3.00;;;2.80;;
4642;SDS011;2334;48.710;9.622;2022-08-01T06:52:52;4.73;;;2.07;;
4642;SDS011;2334;48.710;9.622;2022-08-01T06:55:19;4.77;;;2.70;;
4642;SDS011;2334;48.710;9.622;2022-08-01T06:57:47;2.37;;;2.10;;
4642;SDS011;2334;48.710;9.622;2022-08-01T07:00:14;3.13;;;2.47;;
4642;SDS011;2334;48.710;9.622;2022-08-01T07:02:43;4.03;;;2.67;;
4642;SDS011;2334;48.710;9.622;2022-08-01T07:05:11;7.73;;;3.40;;
4642;SDS011;2334;48.710;9.622;2022-08-01T07:07:38;2.90;;;2.70;;
4642;SDS011;2334;48.710;9.622;2022-08-01T07:10:08;5.17;;;2.30;;
4642;SDS011;2334;48.710;9.622;2022-08-01T07:12:35;3.50;;;2.03;;
4642;SDS011;2334;48.710;9.622;2022-08-01T07:15:03;3.50;;;2.87;;
4642;SDS011;2334;48.710;9.622;2022-08-01T07:17:31;2.53;;;2.10;;
4642;SDS011;2334;48.710;9.622;2022-08-01T07:19:58;3.00;;;2.27;;
4642;SDS011;2334;48.710;9.622;2022-08-01T07:22:25;3.13;;;2.00;;
4642;SDS011;2334;48.710;9.622;2022-08-01T07:24:52;2.20;;;1.80;;
4642;SDS011;2334;48.710;9.622;2022-08-01T07:27:20;2.43;;;2.00;;
4642;SDS011;2334;48.710;9.622;2022-08-01T07:29:47;3.10;;;2.00;;
4642;SDS011;2334;48.710;9.622;2022-08-01T07:32:14;2.07;;;1.87;;
4642;SDS011;2334;48.710;9.622;2022-08-01T07:34:41;2.30;;;2.10;;
4642;SDS011;2334;48.710;9.622;2022-08-01T07:37:08;2.70;;;1.70;;
4642;SDS011;2334;48.710;9.622;2022-08-01T07:39:35;2.00;;;1.80;;
4642;SDS011;2334;48.710;9.622;2022-08-01T07:42:02;1.93;;;1.67;;
4642;SDS011;2334;48.710;9.622;2022-08-01T07:44:30;1.93;;;1.80;;
4642;SDS011;2334;48.710;9.622;2022-08-01T07:46:57;4.10;;;1.80;;
4642;SDS011;2334;48.710;9.622;2022-08-01T07:49:24;1.83;;;1.73;;
4642;SDS011;2334;48.710;9.622;2022-08-01T07:51:51;2.80;;;2.20;;
4642;SDS011;2334;48.710;9.622;2022-08-01T07:54:19;3.83;;;2.20;;
4642;SDS011;2334;48.710;9.622;2022-08-01T07:56:48;2.50;;;2.00;;
4642;SDS011;2334;48.710;9.622;2022-08-01T07:59:15;2.00;;;1.73;;
4642;SDS011;2334;48.710;9.622;2022-08-01T08:01:49;2.80;;;1.87;;
4642;SDS011;2334;48.710;9.622;2022-08-01T08:04:16;2.37;;;1.43;;
4642;SDS011;2334;48.710;9.622;2022-08-01T08:06:44;1.23;;;1.10;;
4642;SDS011;2334;48.710;9.622;2022-08-01T08:09:12;1.60;;;1.50;;
4642;SDS011;2334;48.710;9.622;2022-08-01T08:11:41;1.23;;;1.20;;
4642;SDS011;2334;48.710;9.622;2022-08-01T08:14:09;1.90;;;1.67;;
4642;SDS011;2334;48.710;9.622;2022-08-01T08:16:36;7.93;;;1.57;;
4642;SDS011;2334;48.710;9.622;2022-08-01T08:19:04;3.57;;;2.70;;
4642;SDS011;2334;48.710;9.622;2022-08-01T08:21:31;5.93;;;1.47;;
4642;SDS011;2334;48.710;9.622;2022-08-01T08:23:58;2.20;;;1.63;;
4642;SDS011;2334;48.710;9.622;2022-08-01T08:26:42;2.00;;;1.80;;
4642;SDS011;2334;48.710;9.622;2022-08-01T08:29:09;2.10;;;1.90;;
4642;SDS011;2334;48.710;9.622;2022-08-01T08:31:36;7.50;;;1.60;;
4642;SDS011;2334;48.710;9.622;2022-08-01T08:34:04;1.63;;;1.30;;
4642;SDS011;2334;48.710;9.622;2022-08-01T08:36:31;1.97;;;1.77;;
4642;SDS011;2334;48.710;9.622;2022-08-01T08:38:58;1.53;;;1.20;;
4642;SDS011;2334;48.710;9.622;2022-08-01T08:41:26;1.93;;;1.83;;
4642;SDS011;2334;48.710;9.622;2022-08-01T08:43:55;1.53;;;1.43;;
4642;SDS011;2334;48.710;9.622;2022-08-01T08:46:27;2.17;;;1.90;;
4642;SDS011;2334;48.710;9.622;2022-08-01T08:48:59;1.77;;;1.67;;
4642;SDS011;2334;48.710;9.622;2022-08-01T08:51:30;2.30;;;1.90;;
4642;SDS011;2334;48.710;9.622;2022-08-01T08:54:00;2.03;;;1.93;;
4642;SDS011;2334;48.710;9.622;2022-08-01T08:56:38;1.80;;;1.70;;
4642;SDS011;2334;48.710;9.622;2022-08-01T08:59:10;1.63;;;1.30;;
4642;SDS011;2334;48.710;9.622;2022-08-01T09:01:39;1.87;;;1.77;;
4642;SDS011;2334;48.710;9.622;2022-08-01T09:04:06;2.20;;;1.90;;
4642;SDS011;2334;48.710;9.622;2022-08-01T09:06:35;1.70;;;1.60;;
4642;SDS011;2334;48.710;9.622;2022-08-01T09:09:02;2.17;;;1.90;;
4642;SDS011;2334;48.710;9.622;2022-08-01T09:11:30;2.47;;;2.27;;
4642;SDS011;2334;48.710;9.622;2022-08-01T09:14:02;1.80;;;1.70;;
4642;SDS011;2334;48.710;9.622;2022-08-01T09:16:30;1.57;;;1.37;;
4642;SDS011;2334;48.710;9.622;2022-08-01T09:19:17;2.13;;;1.70;;
4642;SDS011;2334;48.710;9.622;2022-08-01T09:21:57;4.93;;;2.00;;
4642;SDS011;2334;48.710;9.622;2022-08-01T09:24:28;1.50;;;1.40;;
4642;SDS011;2334;48.710;9.622;2022-08-01T09:27:16;3.03;;;2.23;;
4642;SDS011;2334;48.710;9.622;2022-08-01T09:29:45;1.40;;;1.30;;
4642;SDS011;2334;48.710;9.622;2022-08-01T09:32:12;1.93;;;1.73;;
4642;SDS011;2334;48.710;9.622;2022-08-01T09:34:39;1.60;;;1.50;;
4642;SDS011;2334;48.710;9.622;2022-08-01T09:37:07;2.20;;;1.97;;
4642;SDS011;2334;48.710;9.622;2022-08-01T09:39:36;1.80;;;1.70;;
4642;SDS011;2334;48.710;9.622;2022-08-01T09:42:21;2.37;;;1.87;;
4642;SDS011;2334;48.710;9.622;2022-08-01T09:44:48;3.20;;;1.97;;
4642;SDS011;2334;48.710;9.622;2022-08-01T09:47:16;2.67;;;1.93;;
4642;SDS011;2334;48.710;9.622;2022-08-01T09:49:45;2.73;;;1.90;;
4642;SDS011;2334;48.710;9.622;2022-08-01T09:52:22;1.90;;;1.70;;
4642;SDS011;2334;48.710;9.622;2022-08-01T09:54:52;2.07;;;1.97;;
4642;SDS011;2334;48.710;9.622;2022-08-01T09:57:20;2.80;;;2.10;;
4642;SDS011;2334;48.710;9.622;2022-08-01T09:59:48;2.00;;;1.90;;
4642;SDS011;2334;48.710;9.622;2022-08-01T10:02:26;1.90;;;1.80;;
4642;SDS011;2334;48.710;9.622;2022-08-01T10:04:59;2.47;;;2.27;;
4642;SDS011;2334;48.710;9.622;2022-08-01T10:07:28;2.73;;;2.13;;
4642;SDS011;2334;48.710;9.622;2022-08-01T10:09:55;2.93;;;2.40;;
4642;SDS011;2334;48.710;9.622;2022-08-01T10:12:22;2.33;;;1.83;;
4642;SDS011;2334;48.710;9.622;2022-08-01T10:14:50;1.90;;;1.80;;
4642;SDS011;2334;48.710;9.622;2022-08-01T10:17:20;3.97;;;2.00;;
4642;SDS011;2334;48.710;9.622;2022-08-01T10:19:50;2.70;;;1.83;;
4642;SDS011;2334;48.710;9.622;2022-08-01T10:22:19;2.30;;;2.10;;
4642;SDS011;2334;48.710;9.622;2022-08-01T10:24:55;2.20;;;2.00;;
4642;SDS011;2334;48.710;9.622;2022-08-01T10:27:24;3.20;;;2.67;;
4642;SDS011;2334;48.710;9.622;2022-08-01T10:29:54;6.63;;;2.80;;
4642;SDS011;2334;48.710;9.622;2022-08-01T10:32:23;2.80;;;2.40;;
4642;SDS011;2334;48.710;9.622;2022-08-01T10:34:50;2.90;;;2.60;;
4642;SDS011;2334;48.710;9.622;2022-08-01T10:37:17;2.60;;;2.33;;
4642;SDS011;2334;48.710;9.622;2022-08-01T10:39:45;6.10;;;2.40;;
4642;SDS011;2334;48.710;9.622;2022-08-01T10:42:13;2.80;;;2.50;;
4642;SDS011;2334;48.710;9.622;2022-08-01T10:44:40;3.17;;;2.90;;
4642;SDS011;2334;48.710;9.622;2022-08-01T10:47:11;2.43;;;2.23;;
4642;SDS011;2334;48.710;9.622;2022-08-01T10:49:41;3.27;;;2.97;;
4642;SDS011;2334;48.710;9.622;2022-08-01T10:52:14;3.30;;;2.90;;
4642;SDS011;2334;48.710;9.622;2022-08-01T10:54:41;3.40;;;3.10;;
4642;SDS011;2334;48.710;9.622;2022-08-01T10:57:08;6.60;;;2.73;;
4642;SDS011;2334;48.710;9.622;2022-08-01T10:59:47;4.30;;;2.87;;
4642;SDS011;2334;48.710;9.622;2022-08-01T11:02:25;3.00;;;2.70;;
4642;SDS011;2334;48.710;9.622;2022-08-01T11:04:55;3.10;;;2.90;;
4642;SDS011;2334;48.710;9.622;2022-08-01T11:07:35;3.90;;;3.23;;
4642;SDS011;2334;48.710;9.622;2022-08-01T11:10:10;7.10;;;3.00;;
4642;SDS011;2334;48.710;9.622;2022-08-01T11:12:47;6.00;;;3.80;;
4642;SDS011;2334;48.710;9.622;2022-08-01T11:15:23;7.60;;;3.80;;
4642;SDS011;2334;48.710;9.622;2022-08-01T11:17:51;3.13;;;2.63;;
4642;SDS011;2334;48.710;9.622;2022-08-01T11:20:19;5.10;;;4.30;;
4642;SDS011;2334;48.710;9.622;2022-08-01T11:28:33;3.50;;;2.30;;
4642;SDS011;2334;48.710;9.622;2022-08-01T11:33:53;3.57;;;3.27;;
4642;SDS011;2334;48.710;9.622;2022-08-01T11:36:20;5.20;;;3.50;;
4642;SDS011;2334;48.710;9.622;2022-08-01T11:38:49;6.60;;;2.90;;
4642;SDS011;2334;48.710;9.622;2022-08-01T11:41:31;4.20;;;2.70;;
4642;SDS011;2334;48.710;9.622;2022-08-01T11:44:01;2.93;;;2.70;;
4642;SDS011;2334;48.710;9.622;2022-08-01T11:46:46;3.67;;;2.90;;
4642;SDS011;2334;48.710;9.622;2022-08-01T11:49:33;3.00;;;2.80;;
4642;SDS011;2334;48.710;9.622;2022-08-01T11:52:24;2.40;;;2.20;;
4642;SDS011;2334;48.710;9.622;2022-08-01T11:54:53;3.50;;;2.33;;
4642;SDS011;2334;48.710;9.622;2022-08-01T11:57:22;2.67;;;2.47;;
4642;SDS011;2334;48.710;9.622;2022-08-01T11:59:51;3.30;;;2.10;;
4642;SDS011;2334;48.710;9.622;2022-08-01T12:02:28;3.10;;;2.33;;
4642;SDS011;2334;48.710;9.622;2022-08-01T12:04:57;3.20;;;2.20;;
4642;SDS011;2334;48.710;9.622;2022-08-01T12:07:25;3.20;;;2.07;;
4642;SDS011;2334;48.710;9.622;2022-08-01T12:09:57;2.60;;;2.47;;
4642;SDS011;2334;48.710;9.622;2022-08-01T12:12:27;2.40;;;2.20;;
4642;SDS011;2334;48.710;9.622;2022-08-01T12:14:55;1.83;;;1.73;;
4642;SDS011;2334;48.710;9.622;2022-08-01T12:17:29;2.27;;;1.90;;
4642;SDS011;2334;48.710;9.622;2022-08-01T12:19:57;2.10;;;1.90;;
4642;SDS011;2334;48.710;9.622;2022-08-01T12:22:25;2.37;;;2.17;;
4642;SDS011;2334;48.710;9.622;2022-08-01T12:24:53;2.13;;;2.03;;
4642;SDS011;2334;48.710;9.622;2022-08-01T12:27:23;2.30;;;2.10;;
4642;SDS011;2334;48.710;9.622;2022-08-01T12:29:52;5.60;;;2.20;;
4642;SDS011;2334;48.710;9.622;2022-08-01T12:32:20;2.07;;;1.97;;
4642;SDS011;2334;48.710;9.622;2022-08-01T12:34:51;1.60;;;1.50;;
4642;SDS011;2334;48.710;9.622;2022-08-01T12:37:19;3.20;;;2.07;;
4642;SDS011;2334;48.710;9.622;2022-08-01T12:39:47;3.70;;;2.40;;
4642;SDS011;2334;48.710;9.622;2022-08-01T12:42:14;1.80;;;1.70;;
4642;SDS011;2334;48.710;9.622;2022-08-01T12:44:42;3.00;;;2.37;;
4642;SDS011;2334;48.710;9.622;2022-08-01T12:47:11;2.60;;;2.40;;
4642;SDS011;2334;48.710;9.622;2022-08-01T12:49:40;2.20;;;2.00;;
4642;SDS011;2334;48.710;9.622;2022-08-01T12:52:10;2.30;;;2.03;;
4642;SDS011;2334;48.710;9.622;2022-08-01T12:57:31;2.50;;;2.30;;
4642;SDS011;2334;48.710;9.622;2022-08-01T13:00:09;2.30;;;2.10;;
4642;SDS011;2334;48.710;9.622;2022-08-01T13:02:38;2.60;;;2.07;;
4642;SDS011;2334;48.710;9.622;2022-08-01T13:05:05;2.80;;;2.30;;
4642;SDS011;2334;48.710;9.622;2022-08-01T13:07:36;2.27;;;1.93;;
4642;SDS011;2334;48.710;9.622;2022-08-01T13:10:05;2.60;;;2.40;;
4642;SDS011;2334;48.710;9.622;2022-08-01T13:12:33;2.00;;;1.90;;
4642;SDS011;2334;48.710;9.622;2022-08-01T13:15:14;4.80;;;2.20;;
4642;SDS011;2334;48.710;9.622;2022-08-01T13:17:45;2.60;;;2.40;;
4642;SDS011;2334;48.710;9.622;2022-08-01T13:20:20;3.80;;;1.93;;
4642;SDS011;2334;48.710;9.622;2022-08-01T13:22:57;3.97;;;1.70;;
4642;SDS011;2334;48.710;9.622;2022-08-01T13:25:45;1.80;;;1.70;;
4642;SDS011;2334;48.710;9.622;2022-08-01T13:28:14;2.53;;;2.33;;
4642;SDS011;2334;48.710;9.622;2022-08-01T13:30:50;1.80;;;1.70;;
4642;SDS011;2334;48.710;9.622;2022-08-01T13:33:20;1.97;;;1.87;;
4642;SDS011;2334;48.710;9.622;2022-08-01T13:35:49;2.07;;;1.90;;
4642;SDS011;2334;48.710;9.622;2022-08-01T13:38:19;4.33;;;2.10;;
4642;SDS011;2334;48.710;9.622;2022-08-01T13:41:06;2.17;;;1.97;;
4642;SDS011;2334;48.710;9.622;2022-08-01T13:43:34;2.57;;;1.50;;
4642;SDS011;2334;48.710;9.622;2022-08-01T13:46:01;2.70;;;2.50;;
4642;SDS011;2334;48.710;9.622;2022-08-01T13:48:29;1.90;;;1.80;;
4642;SDS011;2334;48.710;9.622;2022-08-01T13:50:57;1.70;;;1.60;;
4642;SDS011;2334;48.710;9.622;2022-08-01T13:53:25;1.70;;;1.60;;
4642;SDS011;2334;48.710;9.622;2022-08-01T13:55:52;2.10;;;1.70;;
4642;SDS011;2334;48.710;9.622;2022-08-01T13:58:19;2.77;;;1.70;;
4642;SDS011;2334;48.710;9.622;2022-08-01T14:00:46;2.17;;;1.53;;
4642;SDS011;2334;48.710;9.622;2022-08-01T14:03:13;3.53;;;1.93;;
4642;SDS011;2334;48.710;9.622;2022-08-01T14:05:41;2.20;;;1.50;;
4642;SDS011;2334;48.710;9.622;2022-08-01T14:08:08;1.80;;;1.67;;
4642;SDS011;2334;48.710;9.622;2022-08-01T14:10:37;1.40;;;1.30;;
4642;SDS011;2334;48.710;9.622;2022-08-01T14:13:04;1.63;;;1.53;;
4642;SDS011;2334;48.710;9.622;2022-08-01T14:15:31;2.50;;;1.40;;
4642;SDS011;2334;48.710;9.622;2022-08-01T14:17:58;1.83;;;1.70;;
4642;SDS011;2334;48.710;9.622;2022-08-01T14:20:25;1.70;;;1.60;;
4642;SDS011;2334;48.710;9.622;2022-08-01T14:22:52;2.63;;;1.30;;
4642;SDS011;2334;48.710;9.622;2022-08-01T14:25:19;2.00;;;1.90;;
4642;SDS011;2334;48.710;9.622;2022-08-01T14:27:47;2.37;;;1.80;;
4642;SDS011;2334;48.710;9.622;2022-08-01T14:30:14;2.33;;;1.37;;
4642;SDS011;2334;48.710;9.622;2022-08-01T14:32:41;2.60;;;1.30;;
4642;SDS011;2334;48.710;9.622;2022-08-01T14:35:08;2.77;;;2.50;;
4642;SDS011;2334;48.710;9.622;2022-08-01T14:37:35;1.77;;;1.60;;
4642;SDS011;2334;48.710;9.622;2022-08-01T14:40:03;1.80;;;1.70;;
4642;SDS011;2334;48.710;9.622;2022-08-01T14:42:34;1.70;;;1.60;;
4642;SDS011;2334;48.710;9.622;2022-08-01T14:45:02;3.17;;;1.60;;
4642;SDS011;2334;48.710;9.622;2022-08-01T14:47:33;1.37;;;1.27;;
4642;SDS011;2334;48.710;9.622;2022-08-01T14:50:01;2.10;;;1.83;;
4642;SDS011;2334;48.710;9.622;2022-08-01T14:52:28;7.43;;;1.50;;
4642;SDS011;2334;48.710;9.622;2022-08-01T14:54:55;2.77;;;1.60;;
4642;SDS011;2334;48.710;9.622;2022-08-01T14:57:22;1.37;;;1.30;;
4642;SDS011;2334;48.710;9.622;2022-08-01T14:59:49;1.20;;;1.20;;
4642;SDS011;2334;48.710;9.622;2022-08-01T15:02:17;3.23;;;2.00;;
4642;SDS011;2334;48.710;9.622;2022-08-01T15:04:44;1.50;;;1.40;;
4642;SDS011;2334;48.710;9.622;2022-08-01T15:07:11;8.80;;;1.50;;
4642;SDS011;2334;48.710;9.622;2022-08-01T15:09:38;1.67;;;1.57;;
4642;SDS011;2334;48.710;9.622;2022-08-01T15:12:06;1.93;;;1.20;;
4642;SDS011;2334;48.710;9.622;2022-08-01T15:14:33;6.80;;;2.40;;
4642;SDS011;2334;48.710;9.622;2022-08-01T15:17:22;2.20;;;1.33;;
4642;SDS011;2334;48.710;9.622;2022-08-01T15:19:50;1.17;;;1.17;;
4642;SDS011;2334;48.710;9.622;2022-08-01T15:22:18;1.40;;;1.30;;
4642;SDS011;2334;48.710;9.622;2022-08-01T15:24:47;2.83;;;1.50;;
4642;SDS011;2334;48.710;9.622;2022-08-01T15:27:14;2.10;;;1.13;;
4642;SDS011;2334;48.710;9.622;2022-08-01T15:29:41;1.33;;;1.23;;
4642;SDS011;2334;48.710;9.622;2022-08-01T15:32:09;1.63;;;1.53;;
4642;SDS011;2334;48.710;9.622;2022-08-01T15:34:38;1.77;;;1.67;;
4642;SDS011;2334;48.710;9.622;2022-08-01T15:37:05;2.57;;;1.43;;
4642;SDS011;2334;48.710;9.622;2022-08-01T15:39:33;2.50;;;1.33;;